Time;durP1;ratioP1;P1;durP2;ratioP2;P2;SDS_P1;SDS_P2;PMS_P1;PMS_P2;Temp;Humidity;BMP_temperature;BMP_pressure;BME280_temperature;BME280_humidity;BME280_pressure;Samples;Min_cycle;Max_cycle;Signal;HPM_P1;HPM_P2
2021/08/27 00:00:39;;;;;;;20.13;17.43;;;;;;;21.06;100.00;99722.16;1604191;86;22257;-60
2021/08/27 00:03:06;;;;;;;21.43;17.40;;;;;;;21.06;100.00;99720.84;1603882;86;21126;-60
2021/08/27 00:05:32;;;;;;;23.03;18.27;;;;;;;20.78;100.00;99722.12;1623217;86;21164;-60
2021/08/27 00:08:00;;;;;;;26.47;18.47;;;;;;;20.77;100.00;99725.84;1602256;87;20970;-60
2021/08/27 00:10:27;;;;;;;23.20;18.80;;;;;;;20.85;100.00;99723.20;1604909;87;21595;-60
2021/08/27 00:12:53;;;;;;;22.77;18.93;;;;;;;20.90;100.00;99727.96;1604250;87;21078;-60
2021/08/27 00:15:21;;;;;;;21.10;18.27;;;;;;;20.88;100.00;99727.45;1602528;87;21076;-60
2021/08/27 00:17:47;;;;;;;21.17;18.87;;;;;;;20.77;100.00;99736.44;1606738;87;21092;-60
2021/08/27 00:20:15;;;;;;;23.00;17.70;;;;;;;20.74;100.00;99738.28;1602750;87;20943;-60
2021/08/27 00:22:41;;;;;;;24.27;17.40;;;;;;;20.89;100.00;99749.44;1604654;87;21075;-60
2021/08/27 00:25:11;;;;;;;22.93;17.10;;;;;;;20.95;100.00;99755.02;1603331;87;21033;-60
2021/08/27 00:27:37;;;;;;;25.47;18.77;;;;;;;20.89;100.00;99754.73;1604079;87;21169;-60
2021/08/27 00:30:07;;;;;;;22.07;18.57;;;;;;;20.84;100.00;99763.48;1601526;88;20971;-59
2021/08/27 00:32:35;;;;;;;22.50;15.97;;;;;;;20.89;100.00;99763.47;1604041;87;21304;-60
2021/08/27 00:35:04;;;;;;;18.87;16.67;;;;;;;21.03;100.00;99765.09;1603275;87;21015;-60
2021/08/27 00:37:30;;;;;;;17.67;15.67;;;;;;;20.94;100.00;99773.81;1607728;87;21070;-60
2021/08/27 00:39:56;;;;;;;19.93;16.37;;;;;;;21.01;100.00;99771.70;1602386;87;21524;-60
2021/08/27 00:42:23;;;;;;;20.50;17.07;;;;;;;20.96;100.00;99763.22;1603613;87;21569;-60
2021/08/27 00:44:49;;;;;;;21.30;17.47;;;;;;;21.20;100.00;99775.95;1604426;87;21085;-60
2021/08/27 00:47:16;;;;;;;18.60;16.07;;;;;;;21.31;100.00;99780.98;1603131;87;21036;-60
2021/08/27 00:49:43;;;;;;;26.67;17.67;;;;;;;21.16;100.00;99784.17;1605987;87;21031;-61
2021/08/27 00:52:10;;;;;;;20.63;16.57;;;;;;;21.26;100.00;99784.19;1589360;88;21062;-60
2021/08/27 00:54:39;;;;;;;22.17;18.97;;;;;;;21.42;100.00;99773.86;1605770;87;21114;-61
2021/08/27 00:57:09;;;;;;;22.17;19.07;;;;;;;21.59;100.00;99775.72;1601900;87;21042;-60
2021/08/27 00:59:36;;;;;;;22.80;17.13;;;;;;;21.65;100.00;99778.34;1604266;87;21035;-61
2021/08/27 01:02:04;;;;;;;23.87;18.40;;;;;;;21.57;100.00;99782.34;1605644;87;21508;-60
2021/08/27 01:04:32;;;;;;;22.43;16.57;;;;;;;21.62;100.00;99783.65;1618182;85;21000;-60
2021/08/27 01:07:03;;;;;;;19.93;16.83;;;;;;;21.54;100.00;99787.64;1631599;86;21603;-58
2021/08/27 01:09:44;;;;;;;24.67;18.45;;;;;;;21.52;100.00;99788.45;1634669;86;21090;-61
2021/08/27 01:12:48;;;;;;;21.97;19.27;;;;;;;21.43;100.00;99795.33;1633700;86;21083;-61
2021/08/27 01:15:38;;;;;;;28.20;19.20;;;;;;;21.53;100.00;99803.30;1606284;87;21075;-61
2021/08/27 01:18:13;;;;;;;27.10;20.50;;;;;;;21.56;100.00;99801.44;1639535;85;21579;-61
2021/08/27 01:21:11;;;;;;;28.20;20.37;;;;;;;21.54;100.00;99810.17;1628067;86;21234;-61
2021/08/27 01:23:40;;;;;;;22.73;18.53;;;;;;;21.52;100.00;99817.63;1633743;87;21006;-60
2021/08/27 01:26:08;;;;;;;22.80;19.20;;;;;;;21.61;100.00;99813.36;1634752;86;21611;-61
2021/08/27 01:28:40;;;;;;;23.70;20.43;;;;;;;21.76;100.00;99813.09;1633146;86;21079;-60
2021/08/27 01:31:27;;;;;;;23.87;20.13;;;;;;;21.82;100.00;99810.67;1633970;87;21561;-60
2021/08/27 01:34:25;;;;;;;28.77;20.23;;;;;;;21.80;100.00;99818.13;1635602;86;21191;-60
2021/08/27 01:36:52;;;;;;;25.83;21.80;;;;;;;22.15;100.00;99812.50;1635302;86;21054;-61
2021/08/27 01:39:18;;;;;;;27.90;20.80;;;;;;;22.15;100.00;99805.86;1614973;87;21596;-58
2021/08/27 01:41:50;;;;;;;28.20;22.93;;;;;;;22.20;100.00;99804.00;1633143;87;21468;-61
2021/08/27 01:44:17;;;;;;;34.08;28.73;;;;;;;22.27;100.00;99804.48;1588052;88;21178;-61
2021/08/27 01:46:45;;;;;;;34.63;27.97;;;;;;;22.35;100.00;99804.48;1632612;86;21034;-57
2021/08/27 01:49:13;;;;;;;32.97;28.73;;;;;;;21.92;100.00;99811.98;1609712;87;21170;-58
2021/08/27 01:51:42;;;;;;;30.80;25.80;;;;;;;22.03;100.00;99811.44;1608503;87;21048;-57
2021/08/27 01:54:08;;;;;;;24.83;20.40;;;;;;;21.83;100.00;99809.63;1617908;85;22001;-57
2021/08/27 01:56:37;;;;;;;26.47;21.87;;;;;;;21.89;100.00;99803.23;1607746;87;21028;-60
2021/08/27 01:59:04;;;;;;;24.03;20.17;;;;;;;22.01;100.00;99806.41;1633864;87;21164;-61
2021/08/27 02:01:32;;;;;;;24.43;18.60;;;;;;;22.00;100.00;99812.77;1632254;86;21560;-61
2021/08/27 02:04:04;;;;;;;23.47;19.93;;;;;;;21.94;100.00;99810.41;1663061;84;22023;-60
2021/08/27 02:06:30;;;;;;;23.20;19.33;;;;;;;21.76;100.00;99817.06;1666452;84;20947;-61
2021/08/27 02:08:58;;;;;;;23.77;19.60;;;;;;;21.89;100.00;99822.34;1623460;86;22209;-61
2021/08/27 02:11:24;;;;;;;26.90;21.37;;;;;;;21.90;100.00;99818.11;1668282;84;21140;-61
2021/08/27 02:13:51;;;;;;;26.90;21.33;;;;;;;22.01;100.00;99823.66;1645246;85;21026;-58
2021/08/27 02:16:17;;;;;;;27.87;22.10;;;;;;;22.16;100.00;99819.39;1668849;84;21031;-60
2021/08/27 02:18:44;;;;;;;24.57;21.63;;;;;;;22.26;100.00;99816.70;1646979;85;21115;-60
2021/08/27 02:21:11;;;;;;;26.43;19.93;;;;;;;22.27;100.00;99826.25;1664707;84;21167;-60
2021/08/27 02:23:40;;;;;;;25.70;22.53;;;;;;;22.13;100.00;99831.86;1665477;84;21085;-60
2021/08/27 02:26:08;;;;;;;29.77;24.70;;;;;;;22.26;100.00;99829.98;1663417;84;21073;-61
2021/08/27 02:28:38;;;;;;;31.17;23.63;;;;;;;22.19;100.00;99824.16;1665145;84;21034;-60
2021/08/27 02:31:04;;;;;;;30.00;25.40;;;;;;;22.15;100.00;99826.56;1645249;85;21067;-60
2021/08/27 02:33:31;;;;;;;32.03;24.63;;;;;;;22.30;100.00;99827.05;1667408;84;21611;-60
2021/08/27 02:35:59;;;;;;;29.83;24.53;;;;;;;22.25;100.00;99835.83;1649122;85;21038;-60
2021/08/27 02:38:27;;;;;;;33.13;25.67;;;;;;;22.32;100.00;99843.52;1645845;85;21206;-61
2021/08/27 02:40:53;;;;;;;30.57;25.23;;;;;;;22.24;100.00;99841.42;1666641;84;21030;-60
2021/08/27 02:43:20;;;;;;;32.20;25.00;;;;;;;22.31;100.00;99841.91;1665994;84;22265;-61
2021/08/27 02:45:47;;;;;;;33.10;25.47;;;;;;;22.32;100.00;99848.29;1667630;84;21537;-59
2021/08/27 02:48:13;;;;;;;37.00;28.53;;;;;;;22.51;100.00;99843.17;1664805;84;21195;-60
2021/08/27 02:50:45;;;;;;;37.33;28.53;;;;;;;22.39;100.00;99844.03;1665613;84;20882;-60
2021/08/27 02:53:15;;;;;;;41.00;30.60;;;;;;;22.30;100.00;99846.42;1666187;84;21105;-60
2021/08/27 02:55:48;;;;;;;38.92;28.75;;;;;;;22.37;100.00;99845.35;1664967;84;21059;-61
2021/08/27 02:58:20;;;;;;;37.10;27.50;;;;;;;22.40;100.00;99846.94;1667235;84;21079;-61
2021/08/27 03:01:10;;;;;;;38.40;28.80;;;;;;;22.45;100.00;99853.55;1680135;82;21137;-60
2021/08/27 03:03:39;;;;;;;36.60;28.43;;;;;;;22.50;100.00;99856.20;1694132;83;21081;-60
2021/08/27 03:06:19;;;;;;;38.67;29.80;;;;;;;22.68;100.00;99860.09;1675797;85;21552;-58
2021/08/27 03:08:50;;;;;;;39.58;31.87;;;;;;;22.75;100.00;99859.80;1714813;82;21077;-60
2021/08/27 03:11:25;;;;;;;39.95;31.33;;;;;;;22.79;100.00;99859.52;1717217;83;21050;-60
2021/08/27 03:14:08;;;;;;;47.20;32.93;;;;;;;22.78;100.00;99865.38;1682970;85;21873;-60
2021/08/27 03:16:35;;;;;;;41.67;30.50;;;;;;;22.76;100.00;99865.38;1715567;83;21042;-60
2021/08/27 03:19:13;;;;;;;40.60;30.77;;;;;;;22.89;100.00;99860.80;1681195;84;21103;-60
2021/08/27 03:21:43;;;;;;;44.40;32.47;;;;;;;22.87;100.00;99857.61;1710353;83;21018;-60
2021/08/27 03:24:38;;;;;;;41.88;30.27;;;;;;;22.97;100.00;99857.59;1680502;84;21002;-60
2021/08/27 03:27:13;;;;;;;43.33;33.57;;;;;;;23.03;100.00;99863.16;1618059;87;21171;-59
2021/08/27 03:29:45;;;;;;;43.40;31.77;;;;;;;22.92;100.00;99862.95;1672600;83;21072;-60
2021/08/27 03:32:12;;;;;;;49.87;36.37;;;;;;;22.95;100.00;99862.91;1716293;81;21065;-58
2021/08/27 03:34:41;;;;;;;49.43;37.63;;;;;;;22.92;100.00;99870.10;1661375;84;21109;-59
2021/08/27 03:37:08;;;;;;;54.60;36.83;;;;;;;22.89;100.00;99867.45;1687463;83;21031;-59
2021/08/27 03:39:36;;;;;;;54.93;38.37;;;;;;;22.90;100.00;99871.69;1680942;84;21215;-60
2021/08/27 03:42:03;;;;;;;55.20;38.77;;;;;;;22.74;100.00;99876.83;1682393;83;21099;-57
2021/08/27 03:44:31;;;;;;;48.50;38.03;;;;;;;22.91;100.00;99873.81;1716778;82;21080;-60
2021/08/27 03:46:58;;;;;;;49.03;36.67;;;;;;;22.83;100.00;99875.17;1678587;83;21119;-59
2021/08/27 03:49:25;;;;;;;58.77;38.33;;;;;;;22.89;100.00;99870.11;1713574;83;20992;-57
2021/08/27 03:51:51;;;;;;;55.83;37.20;;;;;;;22.98;100.00;99880.98;1713496;83;21116;-58
2021/08/27 03:54:18;;;;;;;44.87;32.83;;;;;;;23.14;100.00;99881.14;1679041;85;21035;-59
2021/08/27 03:56:46;;;;;;;49.27;34.53;;;;;;;23.21;100.00;99879.52;1709959;83;20999;-59
2021/08/27 03:59:13;;;;;;;38.33;28.10;;;;;;;23.17;100.00;99878.48;1679395;83;21112;-58
2021/08/27 04:01:39;;;;;;;39.83;30.70;;;;;;;23.12;100.00;99882.51;1709394;83;21018;-59
2021/08/27 04:04:07;;;;;;;43.93;33.37;;;;;;;23.14;100.00;99883.02;1706743;82;21157;-59
2021/08/27 04:06:34;;;;;;;41.17;31.33;;;;;;;23.26;100.00;99884.28;1707601;82;21045;-58
2021/08/27 04:09:00;;;;;;;44.40;31.47;;;;;;;23.33;100.00;99880.50;1655004;85;21024;-58
2021/08/27 04:11:28;;;;;;;46.37;34.13;;;;;;;23.41;100.00;99885.23;1705521;83;21511;-58
2021/08/27 04:13:55;;;;;;;48.00;34.93;;;;;;;23.43;100.00;99882.55;1704656;82;21470;-58
2021/08/27 04:16:22;;;;;;;45.47;33.27;;;;;;;23.55;100.00;99883.53;1707223;83;21101;-59
2021/08/27 04:18:49;;;;;;;45.17;32.63;;;;;;;23.62;100.00;99892.53;1672811;84;21517;-58
2021/08/27 04:21:15;;;;;;;44.43;32.77;;;;;;;23.75;100.00;99897.23;1672025;84;21008;-58
2021/08/27 04:23:41;;;;;;;45.13;32.90;;;;;;;23.73;100.00;99894.86;1672365;83;21083;-59
2021/08/27 04:26:08;;;;;;;44.77;31.47;;;;;;;23.76;100.00;99904.16;1722628;81;21003;-59
2021/08/27 04:28:37;;;;;;;46.13;33.00;;;;;;;23.79;100.00;99911.05;1710656;81;21076;-58
2021/08/27 04:31:03;;;;;;;47.80;32.77;;;;;;;24.00;100.00;99908.20;1710633;81;20974;-58
2021/08/27 04:33:31;;;;;;;41.90;31.10;;;;;;;24.00;100.00;99902.34;1713066;82;21084;-58
2021/08/27 04:35:57;;;;;;;46.70;32.33;;;;;;;23.99;100.00;99903.42;1711187;82;21061;-58
2021/08/27 04:38:24;;;;;;;43.80;31.47;;;;;;;24.03;100.00;99904.45;1713016;83;21080;-58
2021/08/27 04:40:52;;;;;;;45.40;31.87;;;;;;;24.14;100.00;99907.02;1715465;82;21142;-59
2021/08/27 04:43:18;;;;;;;49.83;35.10;;;;;;;24.29;100.00;99901.54;1718810;83;21061;-59
2021/08/27 04:45:46;;;;;;;44.50;31.30;;;;;;;24.42;100.00;99903.55;1719147;83;21090;-59
2021/08/27 04:48:13;;;;;;;45.27;33.13;;;;;;;24.67;100.00;99893.69;1718977;83;21047;-59
2021/08/27 04:50:39;;;;;;;47.57;34.10;;;;;;;24.92;100.00;99892.00;1720931;82;21065;-58
2021/08/27 04:53:05;;;;;;;43.90;32.50;;;;;;;25.03;100.00;99881.21;1719520;83;21089;-59
2021/08/27 04:55:33;;;;;;;39.70;30.47;;;;;;;25.04;100.00;99885.45;1720402;82;21444;-59
2021/08/27 04:57:59;;;;;;;44.97;33.27;;;;;;;25.25;100.00;99894.80;1720025;82;20991;-59
2021/08/27 05:00:26;;;;;;;41.80;32.17;;;;;;;25.34;100.00;99893.05;1719875;83;20903;-59
2021/08/27 05:02:53;;;;;;;43.03;31.33;;;;;;;25.63;100.00;99893.41;1721099;81;21089;-59
2021/08/27 05:05:19;;;;;;;41.33;32.60;;;;;;;25.76;100.00;99892.67;1716119;81;21168;-59
2021/08/27 05:07:48;;;;;;;41.20;31.53;;;;;;;25.98;100.00;99891.25;1725120;81;20931;-59
2021/08/27 05:10:16;;;;;;;43.80;34.33;;;;;;;26.03;100.00;99884.50;1722047;81;21077;-59
2021/08/27 05:12:42;;;;;;;45.33;35.87;;;;;;;26.14;100.00;99888.58;1719808;83;21129;-59
2021/08/27 05:15:11;;;;;;;42.10;30.83;;;;;;;26.15;100.00;99891.48;1720064;83;21393;-59
2021/08/27 05:17:38;;;;;;;45.23;34.07;;;;;;;26.23;100.00;99898.02;1719302;83;21170;-59
2021/08/27 05:20:06;;;;;;;39.00;31.43;;;;;;;26.22;100.00;99894.56;1720476;83;20962;-59
2021/08/27 05:22:33;;;;;;;38.10;30.87;;;;;;;26.20;100.00;99903.41;1720760;82;20918;-59
2021/08/27 05:25:00;;;;;;;37.37;28.00;;;;;;;26.15;100.00;99893.61;1717975;82;21029;-59
2021/08/27 05:27:27;;;;;;;34.50;27.43;;;;;;;26.23;100.00;99896.69;1718926;83;21673;-59
2021/08/27 05:29:53;;;;;;;37.87;29.17;;;;;;;26.49;100.00;99894.35;1720483;82;21140;-59
2021/08/27 05:32:20;;;;;;;34.30;26.77;;;;;;;26.88;100.00;99895.92;1718259;82;20919;-59
2021/08/27 05:34:46;;;;;;;33.67;27.67;;;;;;;27.14;100.00;99888.16;1715473;82;20978;-59
2021/08/27 05:37:12;;;;;;;32.08;27.13;;;;;;;27.27;100.00;99892.43;1717166;82;20974;-59
2021/08/27 05:39:39;;;;;;;33.38;27.90;;;;;;;27.33;100.00;99885.33;1717655;83;20966;-58
2021/08/27 05:42:06;;;;;;;29.52;25.97;;;;;;;27.52;100.00;99883.02;1717792;82;21880;-58
2021/08/27 05:44:33;;;;;;;37.30;28.25;;;;;;;27.92;100.00;99884.45;1714505;82;21508;-58
2021/08/27 05:46:59;;;;;;;30.95;24.67;;;;;;;28.22;100.00;99885.53;1714857;82;21485;-58
2021/08/27 05:49:26;;;;;;;31.48;24.82;;;;;;;28.55;100.00;99884.64;1716778;83;21068;-58
2021/08/27 05:51:52;;;;;;;28.75;23.10;;;;;;;28.53;100.00;99880.16;1714446;83;21073;-58
2021/08/27 05:54:19;;;;;;;29.60;24.50;;;;;;;28.72;100.00;99875.86;1715926;82;21112;-58
2021/08/27 05:56:45;;;;;;;25.55;22.60;;;;;;;28.42;100.00;99885.02;1715277;82;21053;-58
2021/08/27 05:59:13;;;;;;;29.18;24.72;;;;;;;28.58;100.00;99883.47;1714398;82;21064;-58
2021/08/27 06:01:39;;;;;;;24.98;20.75;;;;;;;28.49;100.00;99881.86;1713850;82;21236;-58
2021/08/27 06:04:05;;;;;;;27.35;24.37;;;;;;;28.46;100.00;99886.52;1707014;82;21125;-58
2021/08/27 06:06:32;;;;;;;28.62;24.25;;;;;;;28.42;100.00;99882.89;1709810;82;21144;-58
2021/08/27 06:08:59;;;;;;;32.38;24.40;;;;;;;28.58;100.00;99889.39;1656549;83;21050;-58
2021/08/27 06:11:25;;;;;;;26.52;23.45;;;;;;;28.75;100.00;99885.94;1693679;83;21011;-58
2021/08/27 06:13:52;;;;;;;25.23;22.00;;;;;;;29.31;100.00;99886.94;1693379;84;21591;-58
2021/08/27 06:16:20;;;;;;;24.15;21.50;;;;;;;29.46;100.00;99891.03;1692238;83;21474;-58
2021/08/27 06:18:46;;;;;;;29.85;24.05;;;;;;;29.65;100.00;99886.13;1689756;82;21512;-59
2021/08/27 06:21:13;;;;;;;25.57;21.23;;;;;;;30.04;100.00;99890.45;1695670;82;21057;-59
2021/08/27 06:23:40;;;;;;;24.90;22.17;;;;;;;30.26;100.00;99895.36;1689441;82;22629;-59
2021/08/27 06:26:06;;;;;;;24.18;21.52;;;;;;;30.61;100.00;99886.57;1707514;82;21476;-59
2021/08/27 06:28:33;;;;;;;22.37;20.08;;;;;;;30.69;100.00;99884.94;1707670;82;20987;-59
2021/08/27 06:30:59;;;;;;;22.35;19.87;;;;;;;30.44;100.00;99886.66;1675726;84;21135;-59
2021/08/27 06:33:26;;;;;;;21.97;18.97;;;;;;;31.20;100.00;99883.77;1707576;82;20923;-61
2021/08/27 06:35:52;;;;;;;19.92;17.77;;;;;;;32.15;100.00;99881.23;1654205;83;21592;-59
2021/08/27 06:38:22;;;;;;;19.50;17.45;;;;;;;33.03;100.00;99878.33;1692785;84;21011;-59
2021/08/27 06:41:02;;;;;;;17.42;15.48;;;;;;;34.44;93.60;99889.68;1692394;83;22599;-59
2021/08/27 06:43:30;;;;;;;18.05;15.83;;;;;;;34.44;93.60;99889.68;1707565;82;21152;-59
2021/08/27 06:46:00;;;;;;;17.60;15.70;;;;;;;35.01;83.87;99883.39;1707108;83;20978;-59
2021/08/27 06:48:28;;;;;;;;;;;;;;;35.16;78.08;99885.78;1709971;82;20903;-58
2021/08/27 06:50:55;;;;;;;18.35;16.45;;;;;;;35.26;74.81;99875.73;1654286;85;21690;-58
2021/08/27 06:53:21;;;;;;;18.55;15.88;;;;;;;35.41;70.80;99876.20;1696134;83;21489;-59
2021/08/27 06:55:48;;;;;;;20.02;15.63;;;;;;;35.73;67.50;99869.25;1695945;83;21513;-59
2021/08/27 06:58:14;;;;;;;17.05;15.15;;;;;;;35.96;65.75;99872.72;1694520;82;20947;-59
2021/08/27 07:00:40;;;;;;;15.55;13.95;;;;;;;36.03;58.68;99870.16;1704963;82;21026;-59
2021/08/27 07:03:07;;;;;;;16.00;14.30;;;;;;;35.67;58.39;99874.17;1709091;82;21386;-58
2021/08/27 07:05:35;;;;;;;14.73;13.28;;;;;;;35.56;61.25;99873.98;1707536;83;20998;-58
2021/08/27 07:08:02;;;;;;;14.20;12.65;;;;;;;35.90;59.72;99880.94;1711092;82;21154;-58
2021/08/27 07:10:29;;;;;;;14.47;12.98;;;;;;;36.20;54.15;99879.70;1710149;83;20935;-58
2021/08/27 07:12:56;;;;;;;14.87;13.30;;;;;;;36.28;52.48;99872.44;1710908;83;20959;-58
2021/08/27 07:15:23;;;;;;;13.38;11.97;;;;;;;36.69;48.65;99878.08;1709562;82;21051;-60
2021/08/27 07:17:49;;;;;;;13.53;11.28;;;;;;;36.72;47.50;99875.41;1706835;82;20960;-58
2021/08/27 07:20:16;;;;;;;12.78;11.48;;;;;;;36.76;45.48;99881.66;1709603;83;21146;-57
2021/08/27 07:22:44;;;;;;;13.93;12.53;;;;;;;36.76;46.50;99876.23;1706787;82;20999;-58
2021/08/27 07:25:11;;;;;;;12.20;10.90;;;;;;;37.44;45.08;99882.47;1711270;82;22693;-60
2021/08/27 07:27:39;;;;;;;14.75;11.93;;;;;;;37.77;41.55;99874.58;1714497;83;21612;-59
2021/08/27 07:30:07;;;;;;;14.53;13.03;;;;;;;37.67;42.37;99873.35;1715066;83;21046;-59
2021/08/27 07:32:34;;;;;;;15.53;13.08;;;;;;;37.92;42.38;99877.09;1715082;82;21965;-59
2021/08/27 07:35:01;;;;;;;11.93;10.40;;;;;;;38.02;42.21;99874.23;1714754;82;21015;-59
2021/08/27 07:37:27;;;;;;;12.58;11.28;;;;;;;38.24;39.77;99869.72;1715175;82;21077;-59
2021/08/27 07:39:53;;;;;;;12.58;11.28;;;;;;;38.19;39.06;99874.17;1714711;83;21093;-59
2021/08/27 07:42:20;;;;;;;12.18;10.78;;;;;;;38.12;39.88;99872.75;1715111;83;20980;-61
2021/08/27 07:44:47;;;;;;;12.80;11.48;;;;;;;38.34;40.27;99874.48;1715116;83;21832;-60
2021/08/27 07:47:14;;;;;;;13.00;11.22;;;;;;;38.72;38.54;99868.25;1714945;83;21532;-59
2021/08/27 07:49:42;;;;;;;12.43;10.90;;;;;;;38.99;38.01;99870.12;1714073;82;21090;-59
2021/08/27 07:52:08;;;;;;;11.68;10.48;;;;;;;38.97;36.72;99877.11;1714963;83;21548;-60
2021/08/27 07:54:35;;;;;;;12.47;10.68;;;;;;;38.59;35.84;99875.18;1715488;82;21078;-59
2021/08/27 07:57:01;;;;;;;13.55;10.40;;;;;;;38.06;36.01;99879.70;1713115;82;21194;-60
2021/08/27 07:59:28;;;;;;;10.28;9.28;;;;;;;37.35;35.65;99877.87;1712860;83;21451;-59
2021/08/27 08:01:54;;;;;;;13.30;9.40;;;;;;;36.69;36.24;99880.78;1715344;83;22388;-59
2021/08/27 08:04:21;;;;;;;10.45;9.40;;;;;;;35.92;36.82;99874.59;1714467;82;21089;-60
2021/08/27 08:06:47;;;;;;;10.55;9.25;;;;;;;35.26;38.54;99881.15;1714741;83;21057;-58
2021/08/27 08:09:14;;;;;;;12.80;10.78;;;;;;;34.97;40.00;99874.38;1714713;82;21973;-61
2021/08/27 08:11:40;;;;;;;13.32;10.95;;;;;;;35.05;40.56;99874.19;1711408;83;21813;-61
2021/08/27 08:14:07;;;;;;;13.03;11.05;;;;;;;35.32;40.96;99873.73;1711439;82;21054;-59
2021/08/27 08:16:33;;;;;;;14.40;10.98;;;;;;;35.58;41.45;99871.71;1714952;83;21488;-60
2021/08/27 08:19:00;;;;;;;18.35;10.98;;;;;;;35.72;39.97;99872.50;1713676;83;21074;-60
2021/08/27 08:21:26;;;;;;;12.47;10.23;;;;;;;35.82;40.18;99880.63;1715732;82;21148;-60
2021/08/27 08:23:54;;;;;;;11.08;9.33;;;;;;;35.95;38.52;99876.59;1715842;82;20943;-60
2021/08/27 08:26:21;;;;;;;17.95;9.93;;;;;;;36.13;36.69;99876.09;1714348;82;21046;-58
2021/08/27 08:28:50;;;;;;;22.55;11.05;;;;;;;35.77;37.02;99874.16;1713186;82;21782;-59
2021/08/27 08:31:20;;;;;;;13.90;9.55;;;;;;;35.80;38.21;99876.12;1715045;83;21917;-59
2021/08/27 08:33:48;;;;;;;10.72;9.33;;;;;;;36.07;37.90;99875.63;1714901;82;21171;-59
2021/08/27 08:36:15;;;;;;;10.32;8.48;;;;;;;36.51;36.30;99873.18;1712918;82;20995;-59
2021/08/27 08:38:42;;;;;;;10.58;8.93;;;;;;;36.93;36.00;99871.37;1708323;81;21089;-58
2021/08/27 08:41:09;;;;;;;11.53;9.15;;;;;;;37.38;35.58;99871.69;1707292;81;21065;-59
2021/08/27 08:43:36;;;;;;;10.32;8.55;;;;;;;37.66;34.68;99871.80;1714366;83;21048;-59
2021/08/27 08:46:03;;;;;;;11.95;8.63;;;;;;;38.05;33.79;99869.98;1714448;83;21148;-58
2021/08/27 08:48:29;;;;;;;9.15;8.08;;;;;;;38.10;33.53;99868.26;1709387;81;21488;-58
2021/08/27 08:50:56;;;;;;;10.25;8.00;;;;;;;38.39;32.69;99861.86;1712588;82;21057;-58
2021/08/27 08:53:23;;;;;;;11.53;8.15;;;;;;;38.70;31.62;99861.03;1712724;81;21139;-59
2021/08/27 08:55:51;;;;;;;10.20;8.08;;;;;;;38.84;30.83;99860.34;1713338;82;20999;-59
2021/08/27 08:58:18;;;;;;;9.20;7.45;;;;;;;38.85;30.07;99855.86;1713258;82;21248;-59
2021/08/27 09:00:45;;;;;;;11.12;8.15;;;;;;;38.42;30.30;99855.66;1713026;82;21074;-59
2021/08/27 09:03:12;;;;;;;7.72;6.78;;;;;;;38.31;30.48;99858.88;1715290;83;21552;-60
2021/08/27 09:05:41;;;;;;;9.68;7.33;;;;;;;38.53;30.86;99863.08;1717161;82;21071;-59
2021/08/27 09:08:08;;;;;;;7.22;6.42;;;;;;;38.64;30.28;99869.36;1715371;83;21465;-60
2021/08/27 09:10:42;;;;;;;8.78;6.30;;;;;;;38.66;29.49;99856.92;1715483;82;22095;-59
2021/08/27 09:13:10;;;;;;;7.78;6.10;;;;;;;38.75;28.25;99857.92;1697497;82;37467;-58
2021/08/27 09:15:37;;;;;;;9.15;6.17;;;;;;;38.58;28.30;99862.73;1716447;83;21103;-59
2021/08/27 09:18:07;;;;;;;7.42;5.90;;;;;;;38.58;28.18;99862.73;1687789;83;21011;-59
2021/08/27 09:20:33;;;;;;;6.92;6.15;;;;;;;38.58;28.10;99864.09;1721192;81;20951;-58
2021/08/27 09:23:04;;;;;;;6.47;5.58;;;;;;;38.51;28.20;99858.02;1717426;81;21240;-58
2021/08/27 09:25:34;;;;;;;6.58;5.28;;;;;;;38.81;27.51;99865.19;1684599;83;21242;-58
2021/08/27 09:28:16;;;;;;;6.12;4.83;;;;;;;39.06;26.57;99855.71;1720957;81;21602;-58
2021/08/27 09:30:54;;;;;;;5.80;5.08;;;;;;;39.41;26.15;99858.54;1713296;81;21012;-59
2021/08/27 09:33:29;;;;;;;5.67;5.00;;;;;;;39.58;25.36;99865.75;1715893;82;21075;-59
2021/08/27 09:36:05;;;;;;;5.28;4.67;;;;;;;39.47;25.13;99853.47;1729911;81;21833;-58
2021/08/27 09:38:35;;;;;;;5.95;5.35;;;;;;;39.32;25.64;99858.72;1726700;81;20934;-58
2021/08/27 09:41:08;;;;;;;5.90;4.85;;;;;;;39.33;25.40;99851.52;1717986;82;21864;-59
2021/08/27 09:43:50;;;;;;;5.60;4.33;;;;;;;39.51;25.08;99863.02;1720351;82;21054;-59
2021/08/27 09:46:37;;;;;;;7.75;5.12;;;;;;;39.65;24.23;99864.39;1685107;84;21023;-57
2021/08/27 09:49:07;;;;;;;6.17;4.80;;;;;;;39.53;24.12;99866.15;1711641;83;21104;-58
2021/08/27 09:51:43;;;;;;;5.22;4.72;;;;;;;39.58;23.55;99869.25;1706163;82;21028;-58
2021/08/27 09:54:23;;;;;;;6.42;5.17;;;;;;;39.63;23.79;99862.66;1717018;81;21066;-58
2021/08/27 09:56:53;;;;;;;5.92;4.40;;;;;;;39.54;23.51;99864.39;1695999;83;21017;-58
2021/08/27 09:59:43;;;;;;;8.75;5.37;;;;;;;39.16;24.18;99862.55;1722055;82;21606;-58
2021/08/27 10:02:12;;;;;;;6.50;4.95;;;;;;;39.06;24.47;99866.61;1723369;81;21121;-58
2021/08/27 10:04:58;;;;;;;6.20;4.90;;;;;;;38.79;24.98;99861.47;1654127;83;21260;-58
2021/08/27 10:07:35;;;;;;;7.10;6.17;;;;;;;38.56;25.33;99860.38;1667173;84;21015;-59
2021/08/27 10:10:11;;;;;;;7.75;6.08;;;;;;;38.41;26.29;99858.16;1665232;85;20925;-60
2021/08/27 10:12:40;;;;;;;7.83;5.40;;;;;;;38.17;26.67;99868.31;1664567;85;21580;-60
2021/08/27 10:15:09;;;;;;;6.87;5.77;;;;;;;38.05;27.70;99861.23;1664851;85;21238;-59
2021/08/27 10:17:37;;;;;;;6.17;5.00;;;;;;;37.91;27.81;99861.91;1664163;85;21087;-59
2021/08/27 10:20:05;;;;;;;7.45;5.53;;;;;;;37.87;27.06;99868.45;1665712;84;21067;-58
2021/08/27 10:22:32;;;;;;;7.17;5.28;;;;;;;37.53;27.70;99873.22;1672416;84;21526;-58
2021/08/27 10:25:06;;;;;;;7.12;5.45;;;;;;;37.33;27.54;99872.62;1664668;84;21457;-59
2021/08/27 10:27:32;;;;;;;8.30;5.83;;;;;;;36.91;27.91;99868.26;1665925;85;21177;-59
2021/08/27 10:29:59;;;;;;;16.10;5.67;;;;;;;36.80;28.45;99870.84;1662258;85;20968;-59
2021/08/27 10:32:46;;;;;;;9.03;5.40;;;;;;;36.74;28.68;99864.16;1667726;84;21561;-59
2021/08/27 10:35:31;;;;;;;7.75;5.58;;;;;;;36.81;28.98;99872.39;1663203;85;21493;-59
2021/08/27 10:37:57;;;;;;;7.72;6.05;;;;;;;37.28;28.22;99869.67;1663317;85;21446;-58
2021/08/27 10:40:29;;;;;;;5.80;5.20;;;;;;;37.58;27.90;99870.95;1669403;84;21193;-59
2021/08/27 10:43:01;;;;;;;7.35;5.60;;;;;;;37.73;27.68;99875.36;1662148;84;21016;-59
2021/08/27 10:45:42;;;;;;;5.87;5.00;;;;;;;38.13;26.70;99870.23;1668408;84;21003;-58
2021/08/27 10:48:17;;;;;;;7.78;5.53;;;;;;;38.21;27.17;99865.03;1660350;85;21580;-59
2021/08/27 10:50:48;;;;;;;11.00;6.50;;;;;;;38.61;26.86;99865.47;1663149;84;21018;-59
2021/08/27 10:53:34;;;;;;;8.05;5.62;;;;;;;38.69;26.75;99867.65;1664528;85;21198;-58
2021/08/27 10:56:04;;;;;;;8.00;5.40;;;;;;;38.60;26.65;99866.61;1666047;85;21595;-59
2021/08/27 10:58:47;;;;;;;9.23;6.35;;;;;;;38.49;26.42;99865.78;1659921;84;21376;-58
2021/08/27 11:01:32;;;;;;;7.15;6.15;;;;;;;38.47;26.15;99866.77;1668847;84;21110;-60
2021/08/27 11:04:19;;;;;;;6.62;5.53;;;;;;;38.50;26.98;99872.03;1663400;84;21040;-59
2021/08/27 11:07:08;;;;;;;6.47;5.58;;;;;;;38.58;26.33;99869.55;1667453;84;21264;-59
2021/08/27 11:09:34;;;;;;;6.85;5.30;;;;;;;38.49;26.88;99867.73;1658964;84;21095;-58
2021/08/27 11:12:21;;;;;;;8.13;5.17;;;;;;;38.55;26.01;99866.98;1664274;84;21108;-58
2021/08/27 11:14:54;;;;;;;15.25;5.67;;;;;;;38.39;26.68;99867.89;1664610;84;21078;-59
2021/08/27 11:17:20;;;;;;;6.00;5.33;;;;;;;38.27;26.82;99870.33;1675687;84;21196;-60
2021/08/27 11:19:58;;;;;;;5.90;4.70;;;;;;;38.23;26.84;99866.80;1674358;84;21156;-59
2021/08/27 11:22:31;;;;;;;6.42;5.28;;;;;;;38.10;26.94;99861.45;1669106;84;21043;-58
2021/08/27 11:25:15;;;;;;;6.20;5.15;;;;;;;37.97;26.82;99860.41;1668052;84;21095;-57
2021/08/27 11:27:38;;;;;;;7.17;5.65;;;;;;;37.81;27.03;99863.15;1664833;84;21518;-58